Dungannon, United Kingdom
Current Conditions -  °F | °C
As of 1:20 PM on Sunday 28 Dec 2014 (Local Time) from EGAA Reporting Station
Clear Clear  
Wind Chill: 37°   Ceiling: Unl
Heat Index: 37°   Visibility: 6mi
Dew Point: 36°   Wind: 3mph
Humidity: 93%   Direction: 180°S
Pressure: 30.56"   Gusts: NA
Location:  54.5°N, 6.77°W
Report Text: EGAA 281320Z 18003KT CAVOK 03/02 Q1035
Loading
Personal Weather Stations






























Interactive Weather Map New forecast layout! Learn more

10-Day Weather Forecast

Advertisements
Track Severe Weather on mobile